Time;durP1;ratioP1;P1;durP2;ratioP2;P2;SDS_P1;SDS_P2;PMS_P1;PMS_P2;Temp;Humidity;BMP_temperature;BMP_pressure;BME280_temperature;BME280_humidity;BME280_pressure;Samples;Min_cycle;Max_cycle;Signal;HPM_P1;HPM_P2
2023/12/01 00:02:20;;;;;;;36.20;15.85;;;;;;;-0.64;100.00;99494.88;5162244;28;20033;-75
2023/12/01 00:04:51;;;;;;;41.15;16.10;;;;;;;-0.66;100.00;99500.88;5159467;28;20396;-72
2023/12/01 00:07:21;;;;;;;37.28;15.40;;;;;;;-0.47;100.00;99503.28;5153157;28;20037;-74
2023/12/01 00:09:52;;;;;;;39.47;16.35;;;;;;;-0.52;100.00;99504.16;5157811;28;20337;-72
2023/12/01 00:12:22;;;;;;;41.20;17.15;;;;;;;-0.61;100.00;99502.53;5162084;28;20026;-75
2023/12/01 00:14:52;;;;;;;37.80;15.82;;;;;;;-0.58;100.00;99499.09;5160486;28;20022;-75
2023/12/01 00:17:23;;;;;;;42.78;17.00;;;;;;;-0.74;100.00;99502.66;5160489;28;20109;-74
2023/12/01 00:19:53;;;;;;;43.72;17.15;;;;;;;-0.81;100.00;99504.41;5159290;28;20308;-74
2023/12/01 00:22:24;;;;;;;42.03;17.08;;;;;;;-0.72;100.00;99506.06;5166819;28;20034;-74
2023/12/01 00:24:54;;;;;;;39.80;16.77;;;;;;;-0.62;100.00;99513.66;5168543;28;20029;-75
2023/12/01 00:27:24;;;;;;;41.40;16.90;;;;;;;-0.46;100.00;99519.50;5143654;28;20051;-72
2023/12/01 00:29:55;;;;;;;46.03;17.55;;;;;;;-0.55;100.00;99515.31;5147892;28;20026;-74
2023/12/01 00:32:25;;;;;;;48.72;17.98;;;;;;;-0.67;100.00;99519.69;5145992;28;20139;-73
2023/12/01 00:34:55;;;;;;;44.97;17.95;;;;;;;-0.73;100.00;99530.00;5158792;28;20030;-74
2023/12/01 00:37:26;;;;;;;44.10;17.02;;;;;;;-0.70;100.00;99522.28;5162661;28;20054;-74
2023/12/01 00:39:56;;;;;;;52.67;19.20;;;;;;;-0.63;100.00;99532.47;5160079;28;20019;-74
2023/12/01 00:42:26;;;;;;;54.88;18.83;;;;;;;-0.62;100.00;99528.19;5137018;28;20049;-75
2023/12/01 00:44:56;;;;;;;49.78;18.55;;;;;;;-0.63;100.00;99531.63;5197865;23;20049;-71
2023/12/01 00:47:27;;;;;;;46.85;17.55;;;;;;;-0.68;100.00;99533.38;5180468;28;20083;-72
2023/12/01 00:49:57;;;;;;;51.78;18.63;;;;;;;-0.66;100.00;99534.22;5168369;28;20104;-72
2023/12/01 00:52:27;;;;;;;50.85;17.75;;;;;;;-0.61;100.00;99537.59;5182773;28;20040;-72
2023/12/01 00:54:58;;;;;;;49.83;17.83;;;;;;;-0.55;100.00;99545.25;5182532;28;20044;-72
2023/12/01 00:57:28;;;;;;;53.28;18.85;;;;;;;-0.46;100.00;99532.31;5183087;28;20034;-72
2023/12/01 00:59:58;;;;;;;55.85;18.67;;;;;;;-0.50;100.00;99546.06;5181693;28;20038;-73
2023/12/01 01:02:31;;;;;;;49.38;17.38;;;;;;;-0.42;100.00;99546.84;5182131;28;20128;-72
2023/12/01 01:05:02;;;;;;;48.35;18.58;;;;;;;-0.66;100.00;99553.03;5175726;28;20034;-72
2023/12/01 01:07:33;;;;;;;51.15;18.00;;;;;;;-0.57;100.00;99552.94;5157120;28;20518;-72
2023/12/01 01:10:03;;;;;;;49.33;17.45;;;;;;;-0.38;100.00;99554.50;5179075;28;20352;-72
2023/12/01 01:12:34;;;;;;;47.90;17.38;;;;;;;-0.52;100.00;99553.75;5167455;28;20033;-72
2023/12/01 01:15:04;;;;;;;56.22;18.65;;;;;;;-0.58;100.00;99550.41;5183386;28;20045;-73
2023/12/01 01:17:35;;;;;;;56.95;19.30;;;;;;;-0.58;100.00;99558.09;5187546;28;20593;-73
2023/12/01 01:20:05;;;;;;;52.25;18.42;;;;;;;-0.66;100.00;99560.72;5188471;28;20112;-72
2023/12/01 01:22:36;;;;;;;52.30;19.15;;;;;;;-0.70;100.00;99560.75;5188933;28;20037;-73
2023/12/01 01:25:07;;;;;;;54.72;17.80;;;;;;;-0.53;100.00;99558.91;5187905;28;20033;-72
2023/12/01 01:27:37;;;;;;;50.47;17.85;;;;;;;-0.54;100.00;99557.22;5189305;28;20419;-72
2023/12/01 01:30:08;;;;;;;48.95;17.60;;;;;;;-0.54;100.00;99562.34;5187598;28;20036;-73
2023/12/01 01:32:38;;;;;;;52.92;17.48;;;;;;;-0.60;100.00;99562.38;5172515;28;20041;-72
2023/12/01 01:35:09;;;;;;;50.70;17.05;;;;;;;-0.53;100.00;99558.91;5186816;28;20402;-72
2023/12/01 01:37:39;;;;;;;48.00;17.80;;;;;;;-0.70;100.00;99558.19;5189160;28;20033;-72
2023/12/01 01:40:12;;;;;;;53.85;17.75;;;;;;;-0.50;100.00;99553.75;5187010;28;20317;-73
2023/12/01 01:42:42;;;;;;;56.25;18.70;;;;;;;-0.65;100.00;99556.44;5184917;28;20037;-73
2023/12/01 01:45:12;;;;;;;55.47;18.55;;;;;;;-0.48;100.00;99559.72;5185623;28;20029;-72
2023/12/01 01:47:43;;;;;;;62.58;19.17;;;;;;;-0.38;100.00;99553.66;5189626;28;20135;-72
2023/12/01 01:50:13;;;;;;;57.95;18.50;;;;;;;-0.17;100.00;99561.16;5187004;28;20030;-73
2023/12/01 01:52:43;;;;;;;53.08;17.88;;;;;;;-0.18;100.00;99560.28;5190308;28;20099;-72
2023/12/01 01:55:14;;;;;;;54.42;18.08;;;;;;;-0.04;100.00;99557.63;5185068;28;20057;-72
2023/12/01 01:57:46;;;;;;;51.25;18.00;;;;;;;-0.22;100.00;99568.06;5187408;28;20029;-73
2023/12/01 02:00:16;;;;;;;53.45;17.35;;;;;;;-0.34;100.00;99561.31;5189535;28;20029;-72
2023/12/01 02:02:49;;;;;;;50.65;17.20;;;;;;;-0.24;100.00;99567.22;5185635;28;20397;-73
2023/12/01 02:05:19;;;;;;;50.35;17.80;;;;;;;-0.32;100.00;99571.56;5185349;28;20047;-72
2023/12/01 02:07:49;;;;;;;50.40;17.27;;;;;;;-0.41;100.00;99575.03;5188381;28;20037;-72
2023/12/01 02:10:20;;;;;;;44.70;16.98;;;;;;;-0.63;100.00;99572.66;5184907;28;20081;-72
2023/12/01 02:12:51;;;;;;;46.28;16.10;;;;;;;-0.56;100.00;99579.47;5190260;28;20634;-72
2023/12/01 02:15:21;;;;;;;52.00;17.02;;;;;;;-0.61;100.00;99586.31;5187172;28;20049;-71
2023/12/01 02:17:51;;;;;;;45.45;16.13;;;;;;;-0.53;100.00;99589.69;5187065;28;20042;-72
2023/12/01 02:20:21;;;;;;;51.08;17.02;;;;;;;-0.60;100.00;99599.13;5186597;28;20030;-73
2023/12/01 02:22:52;;;;;;;46.50;16.20;;;;;;;-0.57;100.00;99591.41;5185802;28;20117;-73
2023/12/01 02:25:22;;;;;;;43.58;16.33;;;;;;;-0.71;100.00;99592.38;5185851;28;20502;-72
2023/12/01 02:27:52;;;;;;;44.28;15.77;;;;;;;-0.72;100.00;99598.38;5184046;28;20053;-73
2023/12/01 02:30:23;;;;;;;45.90;16.23;;;;;;;-0.71;100.00;99600.09;5184315;28;20146;-73
2023/12/01 02:32:53;;;;;;;40.97;15.25;;;;;;;-0.71;100.00;99593.22;5184490;28;20069;-71
2023/12/01 02:35:29;;;;;;;44.10;16.63;;;;;;;-0.59;100.00;99597.44;5186923;28;20176;-73
2023/12/01 02:37:59;;;;;;;43.47;14.60;;;;;;;-0.54;100.00;99595.69;5188320;28;20026;-73
2023/12/01 02:40:30;;;;;;;43.80;15.40;;;;;;;-0.61;100.00;99591.44;5166287;28;20032;-72
2023/12/01 02:43:00;;;;;;;41.70;15.65;;;;;;;-0.62;100.00;99597.44;5184251;28;20117;-73
2023/12/01 02:45:30;;;;;;;38.40;14.82;;;;;;;-0.61;100.00;99592.31;5184101;28;20034;-72
2023/12/01 02:48:00;;;;;;;41.22;14.52;;;;;;;-0.62;100.00;99590.59;5186573;28;20499;-73
2023/12/01 02:50:31;;;;;;;40.20;15.27;;;;;;;-0.62;100.00;99590.59;5167918;28;20018;-72
2023/12/01 02:53:04;;;;;;;38.70;14.60;;;;;;;-0.62;100.00;99595.75;5184176;28;20037;-72
2023/12/01 02:55:34;;;;;;;42.33;14.70;;;;;;;-0.64;100.00;99597.47;5186136;28;20033;-72
2023/12/01 02:58:04;;;;;;;40.25;15.43;;;;;;;-0.61;100.00;99591.44;5186903;28;20220;-73
2023/12/01 03:00:35;;;;;;;39.20;14.73;;;;;;;-0.56;100.00;99590.56;5184174;28;20025;-72
2023/12/01 03:03:05;;;;;;;38.30;15.30;;;;;;;-0.59;100.00;99590.59;5186936;28;20033;-73
2023/12/01 03:05:36;;;;;;;44.67;16.17;;;;;;;-0.49;100.00;99591.38;5172348;28;20037;-73
2023/12/01 03:08:06;;;;;;;43.55;15.60;;;;;;;-0.50;100.00;99599.91;5187134;28;20125;-73
2023/12/01 03:10:37;;;;;;;40.90;14.80;;;;;;;-0.34;100.00;99596.38;5186575;28;20430;-73
2023/12/01 03:13:08;;;;;;;40.95;15.45;;;;;;;-0.37;100.00;99601.53;5189970;28;20487;-71
2023/12/01 03:15:40;;;;;;;40.17;15.80;;;;;;;-0.40;100.00;99596.44;5186417;28;20036;-72
2023/12/01 03:18:11;;;;;;;39.53;15.88;;;;;;;-0.34;100.00;99602.38;5187586;28;20556;-73
2023/12/01 03:20:41;;;;;;;45.13;16.20;;;;;;;-0.31;100.00;99606.63;5186259;28;20021;-73
2023/12/01 03:23:11;;;;;;;37.13;14.65;;;;;;;-0.33;100.00;99603.22;5186993;28;20025;-72
2023/12/01 03:25:42;;;;;;;42.28;15.45;;;;;;;-0.23;100.00;99604.84;5187650;28;20406;-73
2023/12/01 03:28:12;;;;;;;38.85;15.48;;;;;;;-0.25;100.00;99601.47;5185399;28;20479;-72
2023/12/01 03:30:42;;;;;;;44.05;15.27;;;;;;;-0.49;100.00;99602.50;5184984;28;20091;-72
2023/12/01 03:33:13;;;;;;;39.22;14.57;;;;;;;-0.59;100.00;99605.97;5168561;28;20390;-72
2023/12/01 03:35:43;;;;;;;37.13;14.43;;;;;;;-0.53;100.00;99610.22;5187438;28;20404;-72
2023/12/01 03:38:14;;;;;;;36.13;14.18;;;;;;;-0.56;100.00;99610.25;5185688;28;20030;-73
2023/12/01 03:40:44;;;;;;;38.55;15.38;;;;;;;-0.47;100.00;99612.72;5186228;28;20025;-73
2023/12/01 03:43:14;;;;;;;39.53;14.60;;;;;;;-0.37;100.00;99614.38;5185555;28;20037;-72
2023/12/01 03:45:45;;;;;;;40.35;14.40;;;;;;;-0.44;100.00;99617.81;5183508;28;20036;-73
2023/12/01 03:48:15;;;;;;;39.67;14.00;;;;;;;-0.54;100.00;99619.59;5185334;28;20052;-73
2023/12/01 03:50:45;;;;;;;40.63;15.18;;;;;;;-0.49;100.00;99615.31;5186958;28;20110;-73
2023/12/01 03:53:15;;;;;;;42.08;14.77;;;;;;;-0.51;100.00;99616.19;5183286;28;20270;-73
2023/12/01 03:55:46;;;;;;;42.15;14.95;;;;;;;-0.49;100.00;99612.75;5184656;28;20078;-73
2023/12/01 03:58:17;;;;;;;38.60;15.13;;;;;;;-0.39;100.00;99613.53;5167998;28;20025;-73
2023/12/01 04:00:47;;;;;;;39.78;15.43;;;;;;;-0.40;100.00;99606.69;5184085;28;20030;-71
2023/12/01 04:03:18;;;;;;;45.85;15.85;;;;;;;-0.48;100.00;99605.88;5182179;28;20590;-73
2023/12/01 04:05:50;;;;;;;41.42;14.68;;;;;;;-0.43;100.00;99611.84;5187738;28;20036;-72
2023/12/01 04:08:20;;;;;;;39.28;13.88;;;;;;;-0.32;100.00;99616.03;5182081;28;20057;-72
2023/12/01 04:10:52;;;;;;;43.05;15.98;;;;;;;-0.44;100.00;99615.25;5166951;28;20549;-72
2023/12/01 04:13:24;;;;;;;39.50;14.88;;;;;;;-0.51;100.00;99618.75;5183308;28;20076;-73
2023/12/01 04:15:55;;;;;;;41.22;14.75;;;;;;;-0.60;100.00;99617.09;5183412;28;20026;-72
2023/12/01 04:18:29;;;;;;;49.58;15.63;;;;;;;-0.56;100.00;99621.34;5181137;28;20506;-72
2023/12/01 04:21:00;;;;;;;42.83;15.75;;;;;;;-0.55;100.00;99617.06;5185279;28;20045;-73
2023/12/01 04:23:30;;;;;;;46.90;15.63;;;;;;;-0.49;100.00;99624.72;5183045;28;20029;-72
2023/12/01 04:26:01;;;;;;;44.55;15.18;;;;;;;-0.49;100.00;99617.00;5183049;28;20034;-73
2023/12/01 04:28:31;;;;;;;41.13;14.63;;;;;;;-0.52;100.00;99614.47;5164631;28;20029;-73
2023/12/01 04:31:05;;;;;;;46.10;15.57;;;;;;;-0.43;100.00;99610.13;5183577;28;20037;-73
2023/12/01 04:33:35;;;;;;;42.08;14.63;;;;;;;-0.44;100.00;99620.38;5183334;28;20095;-73
2023/12/01 04:36:06;;;;;;;42.83;14.98;;;;;;;-0.46;100.00;99614.44;5165680;28;20037;-73
2023/12/01 04:38:36;;;;;;;48.85;15.90;;;;;;;-0.45;100.00;99609.28;5182983;28;20076;-73
2023/12/01 04:41:09;;;;;;;47.70;15.32;;;;;;;-0.52;100.00;99612.75;5183920;28;20072;-72
2023/12/01 04:43:40;;;;;;;47.67;16.60;;;;;;;-0.47;100.00;99612.72;5182640;28;20025;-72
2023/12/01 04:46:10;;;;;;;48.45;15.07;;;;;;;-0.57;100.00;99619.63;5182885;28;20025;-72
2023/12/01 04:48:40;;;;;;;48.65;15.70;;;;;;;-0.53;100.00;99615.34;5182985;28;20038;-72
2023/12/01 04:51:11;;;;;;;46.78;15.88;;;;;;;-0.54;100.00;99614.47;5184719;28;20032;-73
2023/12/01 04:53:41;;;;;;;48.67;15.45;;;;;;;-0.42;100.00;99623.81;5180931;28;20117;-73
2023/12/01 04:56:13;;;;;;;52.88;17.73;;;;;;;-0.49;100.00;99632.41;5184088;28;20398;-72
2023/12/01 04:58:43;;;;;;;47.75;15.70;;;;;;;-0.28;100.00;99627.13;5184912;28;20018;-72
2023/12/01 05:01:14;;;;;;;51.30;16.95;;;;;;;-0.30;100.00;99631.41;5183651;28;20159;-73
2023/12/01 05:03:44;;;;;;;52.97;16.55;;;;;;;-0.23;100.00;99630.53;5183603;28;20430;-73
2023/12/01 05:06:14;;;;;;;49.58;16.15;;;;;;;-0.01;100.00;99628.59;5183855;28;20042;-73
2023/12/01 05:08:44;;;;;;;46.80;15.60;;;;;;;-0.29;100.00;99639.13;5182433;28;20026;-72
2023/12/01 05:11:15;;;;;;;42.10;15.32;;;;;;;-0.13;100.00;99638.13;5183234;28;20091;-73
2023/12/01 05:13:45;;;;;;;48.97;15.95;;;;;;;-0.01;100.00;99638.88;5183786;28;20076;-73
2023/12/01 05:16:16;;;;;;;40.40;14.13;;;;;;;0.07;100.00;99631.94;5168001;28;20045;-72
2023/12/01 05:18:46;;;;;;;42.67;15.05;;;;;;;0.03;100.00;99647.41;5184603;28;20539;-72
2023/12/01 05:21:17;;;;;;;36.40;14.05;;;;;;;-0.03;100.00;99645.75;5184427;28;20476;-72
2023/12/01 05:23:47;;;;;;;35.80;14.27;;;;;;;0.08;100.00;99648.22;5183364;28;20403;-72
2023/12/01 05:26:17;;;;;;;34.28;12.45;;;;;;;-0.10;100.00;99650.06;5180675;28;20509;-73
2023/12/01 05:28:47;;;;;;;33.58;13.38;;;;;;;0.03;100.00;99648.25;5183030;28;20121;-70
2023/12/01 05:31:19;;;;;;;31.17;12.88;;;;;;;-0.02;100.00;99652.56;5184421;28;20060;-71
2023/12/01 05:33:49;;;;;;;33.78;13.27;;;;;;;0.22;100.00;99652.34;5184658;28;20521;-72
2023/12/01 05:36:19;;;;;;;32.45;12.85;;;;;;;0.17;100.00;99650.69;5185709;28;20026;-73
2023/12/01 05:38:50;;;;;;;32.95;13.05;;;;;;;0.14;100.00;99656.72;5183856;28;20032;-72
2023/12/01 05:41:21;;;;;;;31.17;12.60;;;;;;;0.09;100.00;99649.91;5185648;28;20038;-73
2023/12/01 05:43:51;;;;;;;38.08;13.57;;;;;;;0.05;100.00;99643.09;5185858;28;20021;-72
2023/12/01 05:46:21;;;;;;;35.83;13.50;;;;;;;0.01;100.00;99647.41;5167816;28;20029;-72
2023/12/01 05:48:51;;;;;;;34.75;14.38;;;;;;;-0.01;100.00;99645.72;5185712;28;20109;-72
2023/12/01 05:51:22;;;;;;;31.60;13.25;;;;;;;0.12;100.00;99653.31;5184968;28;20030;-72
2023/12/01 05:53:53;;;;;;;26.88;12.15;;;;;;;0.16;100.00;99647.28;5185831;28;20025;-73
2023/12/01 05:56:23;;;;;;;32.13;12.88;;;;;;;0.02;100.00;99648.28;5185423;28;20036;-71
2023/12/01 05:58:53;;;;;;;29.15;12.13;;;;;;;0.03;100.00;99652.53;5166989;28;20049;-73
2023/12/01 06:01:25;;;;;;;26.88;12.02;;;;;;;-0.13;100.00;99662.94;5184644;28;20044;-72
2023/12/01 06:03:55;;;;;;;27.42;11.75;;;;;;;0.00;100.00;99650.00;5186456;28;20499;-72
2023/12/01 06:06:27;;;;;;;28.20;12.35;;;;;;;0.02;100.00;99654.25;5186092;28;20068;-71
2023/12/01 06:08:57;;;;;;;25.63;11.55;;;;;;;-0.04;100.00;99650.03;5185672;28;20092;-72
2023/12/01 06:11:27;;;;;;;24.58;10.50;;;;;;;0.05;100.00;99659.34;5184159;28;20488;-73
2023/12/01 06:13:58;;;;;;;22.48;10.13;;;;;;;-0.12;100.00;99655.22;5168794;28;20044;-72
2023/12/01 06:16:28;;;;;;;25.38;10.88;;;;;;;-0.13;100.00;99662.94;5183499;28;20034;-73
2023/12/01 06:18:58;;;;;;;23.70;10.48;;;;;;;-0.41;100.00;99674.28;5187788;28;20407;-73
2023/12/01 06:21:29;;;;;;;26.70;11.75;;;;;;;-0.41;100.00;99671.72;5186104;28;20491;-72
2023/12/01 06:23:59;;;;;;;25.52;9.98;;;;;;;-0.35;100.00;99669.94;5184883;28;20113;-72
2023/12/01 06:26:29;;;;;;;23.23;10.43;;;;;;;-0.45;100.00;99670.00;5180813;28;20088;-72
2023/12/01 06:28:59;;;;;;;19.45;8.45;;;;;;;-0.52;100.00;99679.44;5187392;28;20400;-72
2023/12/01 06:31:30;;;;;;;19.25;8.40;;;;;;;-0.47;100.00;99684.56;5168282;28;20116;-73
2023/12/01 06:34:00;;;;;;;21.23;9.00;;;;;;;-0.37;100.00;99683.66;5182587;28;20038;-72
2023/12/01 06:36:30;;;;;;;20.23;8.40;;;;;;;-0.42;100.00;99690.53;5182133;28;20108;-72
2023/12/01 06:39:01;;;;;;;18.13;7.65;;;;;;;-0.24;100.00;99692.97;5186454;28;20184;-72
2023/12/01 06:41:31;;;;;;;17.65;7.70;;;;;;;-0.25;100.00;99688.72;5186904;28;20030;-72
2023/12/01 06:44:01;;;;;;;19.63;7.88;;;;;;;-0.13;100.00;99698.88;5202931;22;20510;-71
2023/12/01 06:46:32;;;;;;;20.88;9.30;;;;;;;-0.19;100.00;99704.91;5182466;28;20029;-71
2023/12/01 06:49:02;;;;;;;16.35;7.78;;;;;;;-0.27;100.00;99695.53;5184511;28;20487;-71
2023/12/01 06:51:32;;;;;;;15.63;6.95;;;;;;;-0.32;100.00;99705.00;5187435;28;20550;-72
2023/12/01 06:54:03;;;;;;;15.32;7.30;;;;;;;-0.42;100.00;99713.63;5185598;28;20183;-73
2023/12/01 06:56:33;;;;;;;15.85;6.90;;;;;;;-0.30;100.00;99714.41;5184514;28;20063;-73
2023/12/01 06:59:05;;;;;;;15.38;7.63;;;;;;;-0.19;100.00;99710.03;5187743;28;20135;-73
2023/12/01 07:01:36;;;;;;;15.43;7.65;;;;;;;-0.19;99.98;99725.44;5187679;28;20537;-73
2023/12/01 07:04:07;;;;;;;17.40;7.60;;;;;;;-0.24;100.00;99722.06;5188107;28;20021;-73
2023/12/01 07:06:38;;;;;;;13.93;6.93;;;;;;;-0.23;100.00;99728.06;5187935;28;20057;-73
2023/12/01 07:09:08;;;;;;;21.58;8.65;;;;;;;-0.23;100.00;99733.19;5188135;28;20084;-73
2023/12/01 07:11:38;;;;;;;18.60;8.27;;;;;;;-0.16;100.00;99739.97;5187925;28;20034;-73
2023/12/01 07:14:12;;;;;;;19.23;8.25;;;;;;;-0.13;100.00;99745.09;5187943;28;20029;-72
2023/12/01 07:16:42;;;;;;;13.80;7.25;;;;;;;-0.16;100.00;99750.25;5168929;28;20032;-73
2023/12/01 07:19:12;;;;;;;15.23;7.25;;;;;;;0.04;100.00;99754.38;5188474;28;20013;-73
2023/12/01 07:21:45;;;;;;;17.48;7.43;;;;;;;0.18;100.00;99753.41;5168538;28;20632;-72
2023/12/01 07:24:15;;;;;;;20.13;7.93;;;;;;;0.16;100.00;99757.72;5188604;28;20159;-72
2023/12/01 07:26:51;;;;;;;16.95;7.53;;;;;;;0.22;100.00;99759.38;5167678;28;20108;-73
2023/12/01 07:29:22;;;;;;;16.85;8.15;;;;;;;0.16;99.58;99762.84;5187432;28;20110;-73
2023/12/01 07:31:52;;;;;;;15.93;7.72;;;;;;;0.18;99.40;99766.25;5187048;28;20472;-73
2023/12/01 07:34:22;;;;;;;14.13;6.93;;;;;;;0.07;99.76;99780.88;5186534;28;20033;-73
2023/12/01 07:36:52;;;;;;;16.83;7.07;;;;;;;0.19;99.88;99775.66;5188040;28;20063;-73
2023/12/01 07:39:23;;;;;;;14.68;6.70;;;;;;;0.32;98.69;99776.41;5185384;28;20435;-73
2023/12/01 07:41:53;;;;;;;14.90;6.60;;;;;;;0.36;97.73;99780.69;5186604;28;20026;-73
2023/12/01 07:44:23;;;;;;;13.65;6.30;;;;;;;0.28;97.05;99774.75;5188082;28;20028;-73
2023/12/01 07:46:54;;;;;;;12.93;6.00;;;;;;;0.07;95.94;99780.03;5186799;28;20033;-73
2023/12/01 07:49:24;;;;;;;12.93;6.35;;;;;;;0.02;97.43;99782.63;5187844;28;20034;-70
2023/12/01 07:51:55;;;;;;;12.38;6.45;;;;;;;0.22;97.52;99793.63;5189080;28;20026;-73
2023/12/01 07:54:26;;;;;;;13.02;6.20;;;;;;;0.24;96.30;99794.47;5187696;28;20403;-73
2023/12/01 07:56:57;;;;;;;14.98;6.32;;;;;;;0.15;95.06;99791.97;5186839;28;20083;-73
2023/12/01 07:59:27;;;;;;;13.55;5.82;;;;;;;-0.01;95.08;99798.06;5185580;28;20021;-72
2023/12/01 08:01:58;;;;;;;14.63;6.70;;;;;;;0.20;96.14;99799.66;5188804;28;20029;-72
2023/12/01 08:04:29;;;;;;;12.93;6.43;;;;;;;0.24;95.57;99806.47;5187861;28;20052;-72
2023/12/01 08:07:00;;;;;;;13.65;6.40;;;;;;;0.31;95.94;99801.28;5188533;28;20502;-73
2023/12/01 08:09:31;;;;;;;16.02;6.93;;;;;;;0.42;95.40;99804.59;5187169;28;20030;-73
2023/12/01 08:12:05;;;;;;;12.82;6.25;;;;;;;0.31;93.89;99806.41;5170434;28;20034;-73
2023/12/01 08:14:36;;;;;;;10.73;5.50;;;;;;;0.42;93.66;99808.91;5187772;28;20029;-71
2023/12/01 08:17:06;;;;;;;11.30;5.25;;;;;;;0.33;92.45;99808.94;5186955;28;20417;-73
2023/12/01 08:19:36;;;;;;;11.40;5.38;;;;;;;0.48;91.85;99812.28;5186435;28;20028;-71
2023/12/01 08:22:07;;;;;;;13.68;5.72;;;;;;;0.46;91.53;99819.16;5187253;28;20028;-73
2023/12/01 08:24:38;;;;;;;12.20;5.57;;;;;;;0.46;91.18;99815.72;5187707;28;20515;-71
2023/12/01 08:27:10;;;;;;;10.50;5.25;;;;;;;0.55;92.24;99819.06;5183643;28;20032;-73
2023/12/01 08:29:42;;;;;;;10.98;5.55;;;;;;;0.54;91.73;99825.06;5181883;28;20406;-73
2023/12/01 08:32:12;;;;;;;12.18;5.35;;;;;;;0.53;91.79;99823.38;5168408;28;20030;-73
2023/12/01 08:34:42;;;;;;;11.85;6.20;;;;;;;0.50;91.88;99823.41;5185513;28;21724;-73
2023/12/01 08:37:13;;;;;;;14.13;6.55;;;;;;;0.59;92.70;99825.03;5186797;28;20454;-73
2023/12/01 08:39:44;;;;;;;14.15;5.80;;;;;;;0.54;92.03;99826.81;5185354;28;20033;-73
2023/12/01 08:42:14;;;;;;;11.80;5.80;;;;;;;0.41;91.27;99833.72;5170059;28;20442;-73
2023/12/01 08:44:44;;;;;;;14.05;5.93;;;;;;;0.42;90.93;99832.88;5187831;28;20029;-73
2023/12/01 08:47:19;;;;;;;12.38;5.30;;;;;;;0.54;91.64;99840.50;5188299;28;20032;-73
2023/12/01 08:49:50;;;;;;;12.43;6.50;;;;;;;0.66;92.98;99835.25;5169805;28;20157;-73
2023/12/01 08:52:20;;;;;;;13.95;6.50;;;;;;;0.52;91.78;99837.09;5188638;28;20061;-73
2023/12/01 08:54:50;;;;;;;15.20;6.85;;;;;;;0.66;92.71;99839.53;5184526;28;20037;-73
2023/12/01 08:57:21;;;;;;;15.55;6.85;;;;;;;0.66;93.13;99850.69;5187310;28;20025;-72
2023/12/01 08:59:51;;;;;;;14.73;7.47;;;;;;;0.65;93.97;99842.97;5185691;28;20033;-73
2023/12/01 09:02:21;;;;;;;13.35;7.00;;;;;;;0.64;92.91;99844.72;5188533;28;20021;-73
2023/12/01 09:04:52;;;;;;;15.80;7.03;;;;;;;0.42;93.46;99853.41;5166777;28;20293;-73
2023/12/01 09:07:22;;;;;;;15.07;7.40;;;;;;;0.55;95.05;99847.34;5184796;28;20396;-74
2023/12/01 09:09:52;;;;;;;19.02;7.97;;;;;;;0.14;94.21;99849.34;5186419;28;20022;-73
2023/12/01 09:12:22;;;;;;;15.43;7.28;;;;;;;0.31;94.76;99852.66;5188636;28;20404;-74
2023/12/01 09:14:53;;;;;;;20.33;7.93;;;;;;;0.47;94.63;99848.25;5185278;28;20112;-73
2023/12/01 09:17:23;;;;;;;15.75;7.70;;;;;;;0.61;93.98;99855.03;5185457;28;20065;-70
2023/12/01 09:19:54;;;;;;;14.35;7.20;;;;;;;0.59;94.08;99851.56;5186565;28;20053;-73
2023/12/01 09:22:24;;;;;;;15.32;7.07;;;;;;;0.46;94.55;99855.13;5183945;28;20124;-70
2023/12/01 09:24:54;;;;;;;14.52;6.80;;;;;;;0.44;94.69;99853.41;5185476;28;20412;-73
2023/12/01 09:27:25;;;;;;;15.90;7.10;;;;;;;0.60;95.40;99852.44;5164630;28;20069;-72
2023/12/01 09:29:55;;;;;;;12.40;6.72;;;;;;;0.53;94.45;99858.50;5182211;28;20034;-73
2023/12/01 09:32:26;;;;;;;14.52;6.75;;;;;;;0.30;93.14;99861.22;5182179;28;20555;-71
2023/12/01 09:34:56;;;;;;;11.73;6.15;;;;;;;0.58;93.49;99856.75;5183932;28;20104;-74
2023/12/01 09:37:26;;;;;;;12.80;6.32;;;;;;;0.58;93.49;99857.59;5183067;28;20109;-73
2023/12/01 09:39:57;;;;;;;15.00;6.72;;;;;;;0.52;92.61;99851.66;5185201;28;20763;-74
2023/12/01 09:42:30;;;;;;;14.07;7.22;;;;;;;0.32;91.50;99858.63;5186981;28;20022;-73
2023/12/01 09:45:00;;;;;;;11.98;6.15;;;;;;;0.48;91.61;99861.09;5189273;28;20034;-72
2023/12/01 09:47:34;;;;;;;13.27;5.85;;;;;;;0.56;90.52;99849.03;5170129;28;20044;-73
2023/12/01 09:50:05;;;;;;;12.23;6.00;;;;;;;0.64;89.46;99855.00;5184448;28;20442;-73
2023/12/01 09:52:36;;;;;;;10.95;5.82;;;;;;;0.62;88.80;99854.16;5170327;28;20552;-73
2023/12/01 09:55:06;;;;;;;13.57;5.32;;;;;;;0.73;89.42;99852.31;5187766;28;20025;-73
2023/12/01 09:57:37;;;;;;;10.98;5.43;;;;;;;0.75;88.57;99850.59;5187432;28;20034;-73
2023/12/01 10:00:11;;;;;;;10.85;4.97;;;;;;;0.72;89.58;99857.50;5185084;28;20509;-73
2023/12/01 10:02:41;;;;;;;10.30;5.13;;;;;;;1.07;89.79;99856.31;5188238;28;20026;-73
2023/12/01 10:05:13;;;;;;;11.40;5.85;;;;;;;1.50;88.96;99843.88;5186672;28;20026;-74
2023/12/01 10:07:45;;;;;;;10.50;5.55;;;;;;;1.47;85.09;99844.78;5184193;28;20037;-73
2023/12/01 10:10:20;;;;;;;11.60;6.13;;;;;;;1.45;85.55;99845.66;5184386;28;20026;-74
2023/12/01 10:12:55;;;;;;;;;;;;;;;1.38;84.77;99847.44;5186894;28;20025;-74
2023/12/01 10:15:27;;;;;;;12.48;5.75;;;;;;;1.27;85.62;99851.00;5189251;28;19917;-72
2023/12/01 10:18:12;;;;;;;12.60;6.32;;;;;;;0.82;87.10;99849.69;5187856;28;20064;-73
2023/12/01 10:20:54;;;;;;;11.32;6.13;;;;;;;0.91;87.22;99849.59;5169255;28;20048;-74
2023/12/01 10:23:25;;;;;;;12.80;5.63;;;;;;;0.84;87.33;99849.66;5169663;28;20034;-71
2023/12/01 10:25:56;;;;;;;13.60;6.00;;;;;;;0.85;87.38;99841.94;5185441;28;20047;-74
2023/12/01 10:28:41;;;;;;;12.23;5.45;;;;;;;0.83;86.90;99843.69;5170115;28;20017;-73
2023/12/01 10:31:15;;;;;;;13.00;5.68;;;;;;;0.83;86.79;99837.69;5168094;28;20202;-73
2023/12/01 10:33:47;;;;;;;14.23;5.65;;;;;;;0.85;88.75;99851.38;5184237;28;20497;-74
2023/12/01 10:36:19;;;;;;;13.98;6.50;;;;;;;0.74;88.17;99843.75;5187835;28;20483;-73
2023/12/01 10:38:51;;;;;;;11.50;5.88;;;;;;;0.81;87.93;99848.00;5187343;28;20025;-72
2023/12/01 10:41:22;;;;;;;13.23;5.95;;;;;;;0.71;87.22;99848.91;5188776;28;20422;-74
2023/12/01 10:43:53;;;;;;;11.25;5.72;;;;;;;0.87;87.70;99845.34;5186767;28;20030;-73
2023/12/01 10:46:26;;;;;;;11.93;5.50;;;;;;;0.80;87.18;99843.72;5187159;28;20506;-71
2023/12/01 10:48:57;;;;;;;11.20;5.32;;;;;;;0.72;86.87;99840.34;5185906;28;20025;-74
2023/12/01 10:51:28;;;;;;;13.80;5.75;;;;;;;0.78;87.10;99834.31;5187858;28;20032;-73
2023/12/01 10:53:59;;;;;;;10.90;5.15;;;;;;;0.49;87.25;99841.38;5190111;28;20403;-73
2023/12/01 10:56:31;;;;;;;12.15;5.68;;;;;;;0.53;87.07;99838.78;5186513;28;20041;-73
2023/12/01 10:59:04;;;;;;;10.32;5.18;;;;;;;0.52;88.04;99837.09;5186667;28;20376;-73
2023/12/01 11:01:36;;;;;;;12.45;5.85;;;;;;;0.75;87.32;99832.59;5187629;28;20042;-73
2023/12/01 11:04:10;;;;;;;12.32;5.03;;;;;;;0.27;86.96;99840.69;5185938;28;20534;-74
2023/12/01 11:06:53;;;;;;;16.53;7.10;;;;;;;0.71;87.58;99838.63;5186651;28;20049;-74
2023/12/01 11:10:02;;;;;;;12.52;5.88;;;;;;;0.91;86.16;99841.06;5186195;28;20801;-71
2023/12/01 11:13:11;;;;;;;9.50;4.80;;;;;;;0.76;84.45;99836.03;5158625;28;20049;-72
2023/12/01 11:15:44;;;;;;;10.15;5.20;;;;;;;0.57;84.84;99840.47;5186827;28;20049;-74
2023/12/01 11:18:16;;;;;;;9.98;5.22;;;;;;;0.65;85.20;99827.56;5186995;28;20056;-73
2023/12/01 11:20:48;;;;;;;13.40;5.05;;;;;;;0.66;84.57;99834.41;5169002;28;20104;-73
2023/12/01 11:23:18;;;;;;;9.68;4.95;;;;;;;0.73;85.04;99831.75;5187472;28;20395;-74
2023/12/01 11:25:55;;;;;;;9.82;5.07;;;;;;;0.88;85.20;99836.78;5186212;28;20029;-74
2023/12/01 11:28:38;;;;;;;11.05;5.13;;;;;;;0.80;85.89;99840.28;5186419;28;20075;-73
2023/12/01 11:31:14;;;;;;;10.13;4.57;;;;;;;0.60;87.33;99845.59;5185352;28;20030;-73
2023/12/01 11:33:51;;;;;;;10.43;5.15;;;;;;;0.72;87.62;99842.91;5184165;28;20403;-73
2023/12/01 11:36:32;;;;;;;11.05;4.55;;;;;;;0.64;87.41;99839.56;5187512;28;20030;-74
2023/12/01 11:39:20;;;;;;;9.05;4.40;;;;;;;0.58;87.11;99837.03;5185390;28;20045;-73